EGPK/PIK METAR and TAF weather

Enter ICAO airport designator
Station Type Date Time Source
EGPK METAR 2018/06/25 16:50 UTC NOAA

EGPK 251650Z 28006KT 9999 FEW037 20/09 Q1027


Station Type Date Time Source
EGPK Decoded METAR 2018/06/25 16:50 UTC NOAA

Prestwick Airport, United Kingdom (EGPK) 55-30N 004-35W 0M
Jun 25, 2018 - 12:50 PM EDT / 2018.06.25 1650 UTC
Wind: from the W (280 degrees) at 7 MPH (6 KT):0
Visibility: greater than 7 mile(s):0
Sky conditions: mostly clear
Temperature: 68 F (20 C)
Dew Point: 48 F (9 C)
Relative Humidity: 49%
Pressure (altimeter): 30.33 in. Hg (1027 hPa)
ob: EGPK 251650Z 28006KT 9999 FEW037 20/09 Q1027
cycle: 17

Station Type Date Time Source
EGPK TAF 2018/06/25 18:15 UTC NOAA

TAF EGPK 251705Z 2518/2618 25005KT 9999 FEW035


Example: see airport list